sensor_id;sensor_type;location;lat;lon;timestamp;P1;durP1;ratioP1;P2;durP2;ratioP2
2966;SDS011;1493;51.496;7.210;2022-10-14T00:00:59;12.77;;;10.17;;
2966;SDS011;1493;51.496;7.210;2022-10-14T00:03:26;14.10;;;10.67;;
2966;SDS011;1493;51.496;7.210;2022-10-14T00:05:53;13.90;;;12.33;;
2966;SDS011;1493;51.496;7.210;2022-10-14T00:08:22;14.00;;;11.20;;
2966;SDS011;1493;51.496;7.210;2022-10-14T00:10:50;19.20;;;14.73;;
2966;SDS011;1493;51.496;7.210;2022-10-14T00:13:16;14.93;;;12.13;;
2966;SDS011;1493;51.496;7.210;2022-10-14T00:15:43;19.97;;;13.67;;
2966;SDS011;1493;51.496;7.210;2022-10-14T00:18:10;15.60;;;12.30;;
2966;SDS011;1493;51.496;7.210;2022-10-14T00:20:37;13.63;;;12.23;;
2966;SDS011;1493;51.496;7.210;2022-10-14T00:23:04;14.70;;;12.40;;
2966;SDS011;1493;51.496;7.210;2022-10-14T00:25:35;19.77;;;11.70;;
2966;SDS011;1493;51.496;7.210;2022-10-14T00:28:03;16.43;;;11.93;;
2966;SDS011;1493;51.496;7.210;2022-10-14T00:30:30;16.60;;;12.97;;
2966;SDS011;1493;51.496;7.210;2022-10-14T00:32:57;15.20;;;11.40;;
2966;SDS011;1493;51.496;7.210;2022-10-14T00:35:24;14.97;;;11.33;;
2966;SDS011;1493;51.496;7.210;2022-10-14T00:37:51;14.47;;;10.87;;
2966;SDS011;1493;51.496;7.210;2022-10-14T00:40:18;14.87;;;12.50;;
2966;SDS011;1493;51.496;7.210;2022-10-14T00:42:46;14.70;;;11.00;;
2966;SDS011;1493;51.496;7.210;2022-10-14T00:45:15;18.93;;;10.90;;
2966;SDS011;1493;51.496;7.210;2022-10-14T00:47:46;12.10;;;10.03;;
2966;SDS011;1493;51.496;7.210;2022-10-14T00:50:15;13.07;;;10.50;;
2966;SDS011;1493;51.496;7.210;2022-10-14T00:52:43;14.20;;;10.30;;
2966;SDS011;1493;51.496;7.210;2022-10-14T00:55:12;15.37;;;11.63;;
2966;SDS011;1493;51.496;7.210;2022-10-14T00:57:40;13.30;;;10.40;;
2966;SDS011;1493;51.496;7.210;2022-10-14T01:00:10;11.87;;;10.33;;
2966;SDS011;1493;51.496;7.210;2022-10-14T01:02:39;10.60;;;9.33;;
2966;SDS011;1493;51.496;7.210;2022-10-14T01:05:10;13.13;;;10.70;;
2966;SDS011;1493;51.496;7.210;2022-10-14T01:07:47;12.03;;;10.00;;
2966;SDS011;1493;51.496;7.210;2022-10-14T01:10:24;11.33;;;9.40;;
2966;SDS011;1493;51.496;7.210;2022-10-14T01:13:00;14.60;;;11.20;;
2966;SDS011;1493;51.496;7.210;2022-10-14T01:15:36;13.20;;;9.80;;
2966;SDS011;1493;51.496;7.210;2022-10-14T01:18:13;17.67;;;9.83;;
2966;SDS011;1493;51.496;7.210;2022-10-14T01:20:48;14.97;;;10.10;;
2966;SDS011;1493;51.496;7.210;2022-10-14T01:23:34;14.67;;;12.10;;
2966;SDS011;1493;51.496;7.210;2022-10-14T01:26:20;12.50;;;11.17;;
2966;SDS011;1493;51.496;7.210;2022-10-14T01:28:59;13.53;;;11.57;;
2966;SDS011;1493;51.496;7.210;2022-10-14T01:31:41;19.37;;;12.03;;
2966;SDS011;1493;51.496;7.210;2022-10-14T01:34:13;13.90;;;11.13;;
2966;SDS011;1493;51.496;7.210;2022-10-14T01:36:47;16.30;;;12.67;;
2966;SDS011;1493;51.496;7.210;2022-10-14T01:39:20;17.23;;;13.07;;
2966;SDS011;1493;51.496;7.210;2022-10-14T01:41:51;17.63;;;11.70;;
2966;SDS011;1493;51.496;7.210;2022-10-14T01:44:22;13.90;;;11.17;;
2966;SDS011;1493;51.496;7.210;2022-10-14T01:46:53;15.10;;;12.47;;
2966;SDS011;1493;51.496;7.210;2022-10-14T01:49:22;15.13;;;11.30;;
2966;SDS011;1493;51.496;7.210;2022-10-14T01:51:56;12.27;;;10.70;;
2966;SDS011;1493;51.496;7.210;2022-10-14T01:54:28;13.63;;;11.70;;
2966;SDS011;1493;51.496;7.210;2022-10-14T01:56:58;13.70;;;10.83;;
2966;SDS011;1493;51.496;7.210;2022-10-14T01:59:28;15.80;;;11.10;;
2966;SDS011;1493;51.496;7.210;2022-10-14T02:01:57;13.73;;;11.47;;
2966;SDS011;1493;51.496;7.210;2022-10-14T02:04:24;12.57;;;11.20;;
2966;SDS011;1493;51.496;7.210;2022-10-14T02:06:52;13.17;;;10.63;;
2966;SDS011;1493;51.496;7.210;2022-10-14T02:09:26;11.50;;;10.30;;
2966;SDS011;1493;51.496;7.210;2022-10-14T02:12:03;14.20;;;12.00;;
2966;SDS011;1493;51.496;7.210;2022-10-14T02:14:37;15.20;;;12.73;;
2966;SDS011;1493;51.496;7.210;2022-10-14T02:17:10;14.87;;;12.03;;
2966;SDS011;1493;51.496;7.210;2022-10-14T02:19:43;15.00;;;12.70;;
2966;SDS011;1493;51.496;7.210;2022-10-14T02:22:14;12.93;;;11.27;;
2966;SDS011;1493;51.496;7.210;2022-10-14T02:24:48;12.70;;;11.30;;
2966;SDS011;1493;51.496;7.210;2022-10-14T02:27:18;15.13;;;13.30;;
2966;SDS011;1493;51.496;7.210;2022-10-14T02:29:47;13.33;;;11.93;;
2966;SDS011;1493;51.496;7.210;2022-10-14T02:32:17;12.97;;;11.63;;
2966;SDS011;1493;51.496;7.210;2022-10-14T02:34:47;19.03;;;14.13;;
2966;SDS011;1493;51.496;7.210;2022-10-14T02:37:17;14.87;;;12.20;;
2966;SDS011;1493;51.496;7.210;2022-10-14T02:39:47;14.27;;;12.00;;
2966;SDS011;1493;51.496;7.210;2022-10-14T02:42:19;13.50;;;12.10;;
2966;SDS011;1493;51.496;7.210;2022-10-14T02:44:52;12.03;;;10.33;;
2966;SDS011;1493;51.496;7.210;2022-10-14T02:47:21;14.27;;;12.00;;
2966;SDS011;1493;51.496;7.210;2022-10-14T02:49:49;13.27;;;11.87;;
2966;SDS011;1493;51.496;7.210;2022-10-14T02:52:16;13.50;;;11.50;;
2966;SDS011;1493;51.496;7.210;2022-10-14T02:54:44;12.67;;;11.40;;
2966;SDS011;1493;51.496;7.210;2022-10-14T02:57:10;11.40;;;10.20;;
2966;SDS011;1493;51.496;7.210;2022-10-14T02:59:37;10.83;;;9.80;;
2966;SDS011;1493;51.496;7.210;2022-10-14T03:02:04;12.00;;;10.53;;
2966;SDS011;1493;51.496;7.210;2022-10-14T03:04:33;13.60;;;11.73;;
2966;SDS011;1493;51.496;7.210;2022-10-14T03:07:00;13.87;;;10.73;;
2966;SDS011;1493;51.496;7.210;2022-10-14T03:09:27;12.43;;;11.13;;
2966;SDS011;1493;51.496;7.210;2022-10-14T03:11:55;12.30;;;11.10;;
2966;SDS011;1493;51.496;7.210;2022-10-14T03:14:21;11.43;;;10.23;;
2966;SDS011;1493;51.496;7.210;2022-10-14T03:16:48;10.47;;;9.43;;
2966;SDS011;1493;51.496;7.210;2022-10-14T03:19:15;10.77;;;9.33;;
2966;SDS011;1493;51.496;7.210;2022-10-14T03:21:43;11.27;;;9.30;;
2966;SDS011;1493;51.496;7.210;2022-10-14T03:24:10;10.40;;;9.30;;
2966;SDS011;1493;51.496;7.210;2022-10-14T03:26:37;10.57;;;8.80;;
2966;SDS011;1493;51.496;7.210;2022-10-14T03:29:04;11.47;;;10.27;;
2966;SDS011;1493;51.496;7.210;2022-10-14T03:31:30;11.10;;;8.83;;
2966;SDS011;1493;51.496;7.210;2022-10-14T03:33:57;11.27;;;9.70;;
2966;SDS011;1493;51.496;7.210;2022-10-14T03:36:24;9.33;;;8.40;;
2966;SDS011;1493;51.496;7.210;2022-10-14T03:38:52;14.03;;;10.50;;
2966;SDS011;1493;51.496;7.210;2022-10-14T03:41:19;10.40;;;9.30;;
2966;SDS011;1493;51.496;7.210;2022-10-14T03:43:46;10.60;;;9.50;;
2966;SDS011;1493;51.496;7.210;2022-10-14T03:46:13;10.73;;;9.27;;
2966;SDS011;1493;51.496;7.210;2022-10-14T03:48:40;10.33;;;9.20;;
2966;SDS011;1493;51.496;7.210;2022-10-14T03:51:07;11.77;;;10.33;;
2966;SDS011;1493;51.496;7.210;2022-10-14T03:53:34;12.43;;;11.13;;
2966;SDS011;1493;51.496;7.210;2022-10-14T03:56:02;11.53;;;9.67;;
2966;SDS011;1493;51.496;7.210;2022-10-14T03:58:29;12.23;;;10.93;;
2966;SDS011;1493;51.496;7.210;2022-10-14T04:00:56;12.30;;;11.00;;
2966;SDS011;1493;51.496;7.210;2022-10-14T04:03:23;11.80;;;10.60;;
2966;SDS011;1493;51.496;7.210;2022-10-14T04:05:50;11.27;;;9.17;;
2966;SDS011;1493;51.496;7.210;2022-10-14T04:08:16;11.37;;;10.20;;
2966;SDS011;1493;51.496;7.210;2022-10-14T04:10:43;11.03;;;9.93;;
2966;SDS011;1493;51.496;7.210;2022-10-14T04:13:12;12.97;;;11.57;;
2966;SDS011;1493;51.496;7.210;2022-10-14T04:15:38;12.27;;;11.03;;
2966;SDS011;1493;51.496;7.210;2022-10-14T04:18:05;14.67;;;11.37;;
2966;SDS011;1493;51.496;7.210;2022-10-14T04:20:32;12.93;;;11.33;;
2966;SDS011;1493;51.496;7.210;2022-10-14T04:22:59;11.37;;;10.00;;
2966;SDS011;1493;51.496;7.210;2022-10-14T04:25:25;12.60;;;10.90;;
2966;SDS011;1493;51.496;7.210;2022-10-14T04:27:52;13.00;;;11.10;;
2966;SDS011;1493;51.496;7.210;2022-10-14T04:30:20;11.27;;;10.10;;
2966;SDS011;1493;51.496;7.210;2022-10-14T04:32:47;12.67;;;10.50;;
2966;SDS011;1493;51.496;7.210;2022-10-14T04:35:14;10.50;;;9.07;;
2966;SDS011;1493;51.496;7.210;2022-10-14T04:37:41;10.27;;;9.20;;
2966;SDS011;1493;51.496;7.210;2022-10-14T04:40:08;11.80;;;10.43;;
2966;SDS011;1493;51.496;7.210;2022-10-14T04:42:35;9.17;;;8.27;;
2966;SDS011;1493;51.496;7.210;2022-10-14T04:45:02;12.93;;;10.17;;
2966;SDS011;1493;51.496;7.210;2022-10-14T04:47:31;10.87;;;9.27;;
2966;SDS011;1493;51.496;7.210;2022-10-14T04:49:58;8.90;;;8.00;;
2966;SDS011;1493;51.496;7.210;2022-10-14T04:52:24;14.50;;;9.40;;
2966;SDS011;1493;51.496;7.210;2022-10-14T04:54:51;9.40;;;8.10;;
2966;SDS011;1493;51.496;7.210;2022-10-14T04:57:18;10.77;;;9.67;;
2966;SDS011;1493;51.496;7.210;2022-10-14T04:59:45;9.73;;;8.43;;
2966;SDS011;1493;51.496;7.210;2022-10-14T05:02:11;9.63;;;8.27;;
2966;SDS011;1493;51.496;7.210;2022-10-14T05:04:39;8.47;;;7.57;;
2966;SDS011;1493;51.496;7.210;2022-10-14T05:07:06;13.40;;;8.50;;
2966;SDS011;1493;51.496;7.210;2022-10-14T05:09:33;9.07;;;8.17;;
2966;SDS011;1493;51.496;7.210;2022-10-14T05:12:00;9.10;;;8.20;;
2966;SDS011;1493;51.496;7.210;2022-10-14T05:14:27;10.07;;;8.70;;
2966;SDS011;1493;51.496;7.210;2022-10-14T05:16:54;10.37;;;8.63;;
2966;SDS011;1493;51.496;7.210;2022-10-14T05:19:21;10.40;;;9.27;;
2966;SDS011;1493;51.496;7.210;2022-10-14T05:21:50;9.60;;;8.60;;
2966;SDS011;1493;51.496;7.210;2022-10-14T05:24:17;9.03;;;8.13;;
2966;SDS011;1493;51.496;7.210;2022-10-14T05:26:43;8.73;;;7.83;;
2966;SDS011;1493;51.496;7.210;2022-10-14T05:29:10;9.40;;;8.40;;
2966;SDS011;1493;51.496;7.210;2022-10-14T05:31:37;8.97;;;8.07;;
2966;SDS011;1493;51.496;7.210;2022-10-14T05:34:04;10.20;;;8.43;;
2966;SDS011;1493;51.496;7.210;2022-10-14T05:36:31;9.37;;;8.37;;
2966;SDS011;1493;51.496;7.210;2022-10-14T05:38:59;10.50;;;8.90;;
2966;SDS011;1493;51.496;7.210;2022-10-14T05:41:26;8.93;;;7.60;;
2966;SDS011;1493;51.496;7.210;2022-10-14T05:43:53;9.10;;;8.13;;
2966;SDS011;1493;51.496;7.210;2022-10-14T05:46:20;8.17;;;7.37;;
2966;SDS011;1493;51.496;7.210;2022-10-14T05:48:46;8.60;;;7.80;;
2966;SDS011;1493;51.496;7.210;2022-10-14T05:51:13;7.43;;;6.73;;
2966;SDS011;1493;51.496;7.210;2022-10-14T05:53:40;8.23;;;7.43;;
2966;SDS011;1493;51.496;7.210;2022-10-14T05:56:09;10.73;;;9.53;;
2966;SDS011;1493;51.496;7.210;2022-10-14T05:58:36;9.57;;;8.43;;
2966;SDS011;1493;51.496;7.210;2022-10-14T06:01:09;8.40;;;7.60;;
2966;SDS011;1493;51.496;7.210;2022-10-14T06:03:48;9.50;;;7.90;;
2966;SDS011;1493;51.496;7.210;2022-10-14T06:06:15;8.20;;;7.40;;
2966;SDS011;1493;51.496;7.210;2022-10-14T06:08:42;10.53;;;8.33;;
2966;SDS011;1493;51.496;7.210;2022-10-14T06:11:11;9.60;;;7.90;;
2966;SDS011;1493;51.496;7.210;2022-10-14T06:13:38;7.80;;;6.57;;
2966;SDS011;1493;51.496;7.210;2022-10-14T06:16:05;8.10;;;7.30;;
2966;SDS011;1493;51.496;7.210;2022-10-14T06:18:38;9.00;;;7.63;;
2966;SDS011;1493;51.496;7.210;2022-10-14T06:21:05;9.40;;;6.70;;
2966;SDS011;1493;51.496;7.210;2022-10-14T06:23:32;7.43;;;6.63;;
2966;SDS011;1493;51.496;7.210;2022-10-14T06:26:02;7.60;;;6.90;;
2966;SDS011;1493;51.496;7.210;2022-10-14T06:28:31;7.03;;;6.33;;
2966;SDS011;1493;51.496;7.210;2022-10-14T06:30:58;8.30;;;6.83;;
2966;SDS011;1493;51.496;7.210;2022-10-14T06:33:26;9.07;;;7.63;;
2966;SDS011;1493;51.496;7.210;2022-10-14T06:35:54;7.67;;;6.90;;
2966;SDS011;1493;51.496;7.210;2022-10-14T06:38:20;9.50;;;6.97;;
2966;SDS011;1493;51.496;7.210;2022-10-14T06:40:48;7.37;;;6.33;;
2966;SDS011;1493;51.496;7.210;2022-10-14T06:43:15;7.20;;;6.50;;
2966;SDS011;1493;51.496;7.210;2022-10-14T06:45:44;6.33;;;5.73;;
2966;SDS011;1493;51.496;7.210;2022-10-14T06:48:10;6.23;;;5.30;;
2966;SDS011;1493;51.496;7.210;2022-10-14T06:50:37;6.20;;;5.60;;
2966;SDS011;1493;51.496;7.210;2022-10-14T06:53:04;6.53;;;5.83;;
2966;SDS011;1493;51.496;7.210;2022-10-14T06:55:34;6.37;;;5.77;;
2966;SDS011;1493;51.496;7.210;2022-10-14T06:58:01;7.60;;;6.10;;
2966;SDS011;1493;51.496;7.210;2022-10-14T07:00:28;5.43;;;4.90;;
2966;SDS011;1493;51.496;7.210;2022-10-14T07:02:57;6.17;;;5.57;;
2966;SDS011;1493;51.496;7.210;2022-10-14T07:05:27;6.70;;;6.10;;
2966;SDS011;1493;51.496;7.210;2022-10-14T07:07:55;7.23;;;5.10;;
2966;SDS011;1493;51.496;7.210;2022-10-14T07:10:23;8.23;;;6.23;;
2966;SDS011;1493;51.496;7.210;2022-10-14T07:12:51;7.20;;;5.80;;
2966;SDS011;1493;51.496;7.210;2022-10-14T07:15:18;5.13;;;4.57;;
2966;SDS011;1493;51.496;7.210;2022-10-14T07:17:45;5.70;;;5.03;;
2966;SDS011;1493;51.496;7.210;2022-10-14T07:20:14;6.37;;;4.83;;
2966;SDS011;1493;51.496;7.210;2022-10-14T07:22:40;5.30;;;4.80;;
2966;SDS011;1493;51.496;7.210;2022-10-14T07:25:08;6.03;;;5.43;;
2966;SDS011;1493;51.496;7.210;2022-10-14T07:27:35;5.93;;;5.20;;
2966;SDS011;1493;51.496;7.210;2022-10-14T07:30:02;4.77;;;4.30;;
2966;SDS011;1493;51.496;7.210;2022-10-14T07:32:30;4.73;;;4.23;;
2966;SDS011;1493;51.496;7.210;2022-10-14T07:35:00;4.60;;;3.60;;
2966;SDS011;1493;51.496;7.210;2022-10-14T07:37:29;5.43;;;4.93;;
2966;SDS011;1493;51.496;7.210;2022-10-14T07:39:56;6.27;;;4.53;;
2966;SDS011;1493;51.496;7.210;2022-10-14T07:42:22;4.77;;;4.27;;
2966;SDS011;1493;51.496;7.210;2022-10-14T07:45:02;6.10;;;4.70;;
2966;SDS011;1493;51.496;7.210;2022-10-14T07:47:29;4.37;;;3.80;;
2966;SDS011;1493;51.496;7.210;2022-10-14T07:49:57;4.57;;;4.17;;
2966;SDS011;1493;51.496;7.210;2022-10-14T07:52:25;3.97;;;3.60;;
2966;SDS011;1493;51.496;7.210;2022-10-14T07:54:53;5.17;;;4.67;;
2966;SDS011;1493;51.496;7.210;2022-10-14T07:57:20;5.37;;;4.87;;
2966;SDS011;1493;51.496;7.210;2022-10-14T08:00:01;5.17;;;3.80;;
2966;SDS011;1493;51.496;7.210;2022-10-14T08:02:28;6.33;;;4.20;;
2966;SDS011;1493;51.496;7.210;2022-10-14T08:04:55;4.40;;;4.00;;
2966;SDS011;1493;51.496;7.210;2022-10-14T08:07:22;4.47;;;3.53;;
2966;SDS011;1493;51.496;7.210;2022-10-14T08:09:51;4.03;;;3.53;;
2966;SDS011;1493;51.496;7.210;2022-10-14T08:12:19;4.33;;;3.93;;
2966;SDS011;1493;51.496;7.210;2022-10-14T08:14:46;5.03;;;4.53;;
2966;SDS011;1493;51.496;7.210;2022-10-14T08:17:14;7.00;;;3.67;;
2966;SDS011;1493;51.496;7.210;2022-10-14T08:19:41;4.10;;;3.60;;
2966;SDS011;1493;51.496;7.210;2022-10-14T08:22:08;3.53;;;3.07;;
2966;SDS011;1493;51.496;7.210;2022-10-14T08:24:35;4.30;;;3.37;;
2966;SDS011;1493;51.496;7.210;2022-10-14T08:27:03;3.83;;;3.37;;
2966;SDS011;1493;51.496;7.210;2022-10-14T08:29:32;3.80;;;3.37;;
2966;SDS011;1493;51.496;7.210;2022-10-14T08:31:59;5.13;;;3.50;;
2966;SDS011;1493;51.496;7.210;2022-10-14T08:34:25;3.43;;;2.80;;
2966;SDS011;1493;51.496;7.210;2022-10-14T08:36:52;4.20;;;3.80;;
2966;SDS011;1493;51.496;7.210;2022-10-14T08:39:19;4.83;;;3.70;;
2966;SDS011;1493;51.496;7.210;2022-10-14T08:41:52;3.23;;;2.93;;
2966;SDS011;1493;51.496;7.210;2022-10-14T08:44:34;3.57;;;2.73;;
2966;SDS011;1493;51.496;7.210;2022-10-14T08:47:08;3.17;;;2.50;;
2966;SDS011;1493;51.496;7.210;2022-10-14T08:49:41;4.00;;;2.90;;
2966;SDS011;1493;51.496;7.210;2022-10-14T08:52:19;2.60;;;2.17;;
2966;SDS011;1493;51.496;7.210;2022-10-14T08:54:53;3.07;;;2.77;;
2966;SDS011;1493;51.496;7.210;2022-10-14T08:57:24;3.33;;;2.50;;
2966;SDS011;1493;51.496;7.210;2022-10-14T08:59:54;2.80;;;2.10;;
2966;SDS011;1493;51.496;7.210;2022-10-14T09:02:23;5.80;;;2.03;;
2966;SDS011;1493;51.496;7.210;2022-10-14T09:04:57;2.37;;;2.00;;
2966;SDS011;1493;51.496;7.210;2022-10-14T09:07:26;4.60;;;1.83;;
2966;SDS011;1493;51.496;7.210;2022-10-14T09:09:55;3.93;;;2.53;;
2966;SDS011;1493;51.496;7.210;2022-10-14T09:12:28;3.23;;;1.90;;
2966;SDS011;1493;51.496;7.210;2022-10-14T09:15:00;3.30;;;2.13;;
2966;SDS011;1493;51.496;7.210;2022-10-14T09:17:33;3.20;;;1.73;;
2966;SDS011;1493;51.496;7.210;2022-10-14T09:20:12;3.07;;;1.90;;
2966;SDS011;1493;51.496;7.210;2022-10-14T09:22:42;2.87;;;1.33;;
2966;SDS011;1493;51.496;7.210;2022-10-14T09:25:11;2.00;;;1.70;;
2966;SDS011;1493;51.496;7.210;2022-10-14T09:27:42;3.33;;;1.80;;
2966;SDS011;1493;51.496;7.210;2022-10-14T09:30:13;3.23;;;1.90;;
2966;SDS011;1493;51.496;7.210;2022-10-14T09:32:43;1.90;;;1.60;;
2966;SDS011;1493;51.496;7.210;2022-10-14T09:35:13;2.53;;;1.43;;
2966;SDS011;1493;51.496;7.210;2022-10-14T09:37:44;3.50;;;1.40;;
2966;SDS011;1493;51.496;7.210;2022-10-14T09:40:14;2.40;;;1.47;;
2966;SDS011;1493;51.496;7.210;2022-10-14T09:42:46;2.93;;;1.63;;
2966;SDS011;1493;51.496;7.210;2022-10-14T09:45:22;2.90;;;1.63;;
2966;SDS011;1493;51.496;7.210;2022-10-14T09:47:51;5.17;;;2.10;;
2966;SDS011;1493;51.496;7.210;2022-10-14T09:50:22;2.03;;;1.50;;
2966;SDS011;1493;51.496;7.210;2022-10-14T09:52:58;1.90;;;1.17;;
2966;SDS011;1493;51.496;7.210;2022-10-14T09:55:26;2.80;;;1.40;;
2966;SDS011;1493;51.496;7.210;2022-10-14T09:57:56;2.27;;;1.53;;
2966;SDS011;1493;51.496;7.210;2022-10-14T10:00:33;3.17;;;1.20;;
2966;SDS011;1493;51.496;7.210;2022-10-14T10:03:01;3.57;;;1.60;;
2966;SDS011;1493;51.496;7.210;2022-10-14T10:05:29;2.53;;;1.50;;
2966;SDS011;1493;51.496;7.210;2022-10-14T10:07:59;2.20;;;1.50;;
2966;SDS011;1493;51.496;7.210;2022-10-14T10:10:31;2.40;;;1.70;;
2966;SDS011;1493;51.496;7.210;2022-10-14T10:12:59;2.17;;;1.40;;
2966;SDS011;1493;51.496;7.210;2022-10-14T10:15:26;4.00;;;1.57;;
2966;SDS011;1493;51.496;7.210;2022-10-14T10:18:02;2.43;;;1.13;;
2966;SDS011;1493;51.496;7.210;2022-10-14T10:20:43;2.77;;;1.50;;
2966;SDS011;1493;51.496;7.210;2022-10-14T10:23:31;2.20;;;1.30;;
2966;SDS011;1493;51.496;7.210;2022-10-14T10:26:12;2.07;;;1.20;;
2966;SDS011;1493;51.496;7.210;2022-10-14T10:28:43;3.03;;;1.23;;
2966;SDS011;1493;51.496;7.210;2022-10-14T10:31:13;2.37;;;1.50;;
2966;SDS011;1493;51.496;7.210;2022-10-14T10:33:51;2.60;;;1.80;;
2966;SDS011;1493;51.496;7.210;2022-10-14T10:36:27;2.90;;;1.90;;
2966;SDS011;1493;51.496;7.210;2022-10-14T10:38:59;3.27;;;2.60;;
2966;SDS011;1493;51.496;7.210;2022-10-14T10:41:42;2.30;;;1.40;;
2966;SDS011;1493;51.496;7.210;2022-10-14T10:47:18;6.63;;;5.10;;
2966;SDS011;1493;51.496;7.210;2022-10-14T10:53:01;2.63;;;1.63;;
2966;SDS011;1493;51.496;7.210;2022-10-14T10:55:42;2.70;;;1.47;;
2966;SDS011;1493;51.496;7.210;2022-10-14T10:58:21;2.40;;;1.50;;
2966;SDS011;1493;51.496;7.210;2022-10-14T11:01:04;1.80;;;1.20;;
2966;SDS011;1493;51.496;7.210;2022-10-14T11:03:55;2.60;;;1.80;;
2966;SDS011;1493;51.496;7.210;2022-10-14T11:06:34;2.13;;;1.67;;
2966;SDS011;1493;51.496;7.210;2022-10-14T11:09:24;2.70;;;1.80;;
2966;SDS011;1493;51.496;7.210;2022-10-14T11:12:18;2.20;;;1.40;;
2966;SDS011;1493;51.496;7.210;2022-10-14T11:15:02;2.40;;;1.77;;
2966;SDS011;1493;51.496;7.210;2022-10-14T11:17:45;3.20;;;1.73;;
2966;SDS011;1493;51.496;7.210;2022-10-14T11:20:22;2.10;;;1.50;;
2966;SDS011;1493;51.496;7.210;2022-10-14T11:23:05;2.73;;;1.60;;
2966;SDS011;1493;51.496;7.210;2022-10-14T11:26:36;3.47;;;1.83;;
2966;SDS011;1493;51.496;7.210;2022-10-14T11:29:31;4.87;;;2.30;;
2966;SDS011;1493;51.496;7.210;2022-10-14T11:32:07;3.83;;;2.40;;
2966;SDS011;1493;51.496;7.210;2022-10-14T11:34:45;2.60;;;2.00;;
2966;SDS011;1493;51.496;7.210;2022-10-14T11:37:23;2.73;;;2.23;;
2966;SDS011;1493;51.496;7.210;2022-10-14T11:39:57;3.87;;;1.97;;
2966;SDS011;1493;51.496;7.210;2022-10-14T11:42:30;4.00;;;2.27;;
2966;SDS011;1493;51.496;7.210;2022-10-14T11:45:16;3.77;;;2.20;;
2966;SDS011;1493;51.496;7.210;2022-10-14T11:47:52;3.30;;;2.50;;
2966;SDS011;1493;51.496;7.210;2022-10-14T11:50:27;3.37;;;2.53;;
2966;SDS011;1493;51.496;7.210;2022-10-14T11:52:59;4.80;;;2.90;;
2966;SDS011;1493;51.496;7.210;2022-10-14T11:55:37;4.23;;;3.47;;
2966;SDS011;1493;51.496;7.210;2022-10-14T11:58:10;3.83;;;2.93;;
2966;SDS011;1493;51.496;7.210;2022-10-14T12:00:41;4.30;;;2.67;;
2966;SDS011;1493;51.496;7.210;2022-10-14T12:03:31;4.67;;;2.87;;
2966;SDS011;1493;51.496;7.210;2022-10-14T12:06:11;9.43;;;3.60;;
2966;SDS011;1493;51.496;7.210;2022-10-14T12:08:44;5.30;;;3.43;;
2966;SDS011;1493;51.496;7.210;2022-10-14T12:11:21;4.97;;;2.87;;
2966;SDS011;1493;51.496;7.210;2022-10-14T12:13:55;3.63;;;3.10;;
2966;SDS011;1493;51.496;7.210;2022-10-14T12:16:30;7.50;;;3.60;;
2966;SDS011;1493;51.496;7.210;2022-10-14T12:18:58;4.60;;;2.97;;
2966;SDS011;1493;51.496;7.210;2022-10-14T12:21:29;3.77;;;2.93;;
2966;SDS011;1493;51.496;7.210;2022-10-14T12:24:07;4.67;;;3.33;;
2966;SDS011;1493;51.496;7.210;2022-10-14T12:26:46;5.50;;;3.50;;
2966;SDS011;1493;51.496;7.210;2022-10-14T12:29:17;9.43;;;4.30;;
2966;SDS011;1493;51.496;7.210;2022-10-14T12:31:47;6.27;;;3.87;;
2966;SDS011;1493;51.496;7.210;2022-10-14T12:34:23;5.53;;;4.20;;
2966;SDS011;1493;51.496;7.210;2022-10-14T12:36:54;4.93;;;3.57;;
2966;SDS011;1493;51.496;7.210;2022-10-14T12:39:29;6.20;;;4.40;;
2966;SDS011;1493;51.496;7.210;2022-10-14T12:42:00;7.30;;;4.70;;
2966;SDS011;1493;51.496;7.210;2022-10-14T12:44:40;7.03;;;5.30;;
2966;SDS011;1493;51.496;7.210;2022-10-14T12:47:21;9.53;;;5.50;;
2966;SDS011;1493;51.496;7.210;2022-10-14T12:49:55;9.07;;;5.83;;
2966;SDS011;1493;51.496;7.210;2022-10-14T12:52:27;7.50;;;4.93;;
2966;SDS011;1493;51.496;7.210;2022-10-14T12:55:07;10.00;;;6.50;;
2966;SDS011;1493;51.496;7.210;2022-10-14T12:57:42;7.93;;;6.10;;
2966;SDS011;1493;51.496;7.210;2022-10-14T13:00:26;6.07;;;5.00;;
2966;SDS011;1493;51.496;7.210;2022-10-14T13:02:55;7.63;;;5.97;;
2966;SDS011;1493;51.496;7.210;2022-10-14T13:05:33;10.20;;;7.33;;
2966;SDS011;1493;51.496;7.210;2022-10-14T13:08:09;8.00;;;5.70;;
2966;SDS011;1493;51.496;7.210;2022-10-14T13:10:44;7.13;;;6.40;;
2966;SDS011;1493;51.496;7.210;2022-10-14T13:22:38;7.00;;;6.30;;
2966;SDS011;1493;51.496;7.210;2022-10-14T13:25:13;7.40;;;5.80;;
2966;SDS011;1493;51.496;7.210;2022-10-14T13:27:51;8.17;;;6.23;;
2966;SDS011;1493;51.496;7.210;2022-10-14T13:30:36;7.23;;;6.30;;
2966;SDS011;1493;51.496;7.210;2022-10-14T13:33:15;7.80;;;5.80;;
2966;SDS011;1493;51.496;7.210;2022-10-14T13:35:47;8.77;;;5.80;;
2966;SDS011;1493;51.496;7.210;2022-10-14T13:38:22;6.50;;;5.10;;
2966;SDS011;1493;51.496;7.210;2022-10-14T13:40:50;7.53;;;5.53;;
2966;SDS011;1493;51.496;7.210;2022-10-14T13:43:22;7.37;;;4.90;;
2966;SDS011;1493;51.496;7.210;2022-10-14T13:45:55;5.63;;;5.03;;
2966;SDS011;1493;51.496;7.210;2022-10-14T13:48:30;5.37;;;4.67;;
2966;SDS011;1493;51.496;7.210;2022-10-14T13:51:07;5.83;;;4.63;;
2966;SDS011;1493;51.496;7.210;2022-10-14T13:53:49;5.30;;;4.27;;
2966;SDS011;1493;51.496;7.210;2022-10-14T13:56:18;6.50;;;4.07;;
2966;SDS011;1493;51.496;7.210;2022-10-14T13:58:47;6.47;;;4.93;;
2966;SDS011;1493;51.496;7.210;2022-10-14T14:01:16;5.30;;;3.93;;
2966;SDS011;1493;51.496;7.210;2022-10-14T14:03:45;5.70;;;4.30;;
2966;SDS011;1493;51.496;7.210;2022-10-14T14:06:17;5.13;;;4.60;;
2966;SDS011;1493;51.496;7.210;2022-10-14T14:08:46;9.70;;;4.17;;
2966;SDS011;1493;51.496;7.210;2022-10-14T14:11:18;5.83;;;4.80;;
2966;SDS011;1493;51.496;7.210;2022-10-14T14:13:48;6.13;;;4.30;;
2966;SDS011;1493;51.496;7.210;2022-10-14T14:16:22;6.60;;;4.93;;
2966;SDS011;1493;51.496;7.210;2022-10-14T14:18:51;7.27;;;4.63;;
2966;SDS011;1493;51.496;7.210;2022-10-14T14:21:19;4.80;;;4.20;;
2966;SDS011;1493;51.496;7.210;2022-10-14T14:23:54;4.00;;;3.40;;
2966;SDS011;1493;51.496;7.210;2022-10-14T14:26:24;5.27;;;3.90;;
2966;SDS011;1493;51.496;7.210;2022-10-14T14:28:54;7.53;;;4.30;;
2966;SDS011;1493;51.496;7.210;2022-10-14T14:31:23;4.80;;;4.27;;
2966;SDS011;1493;51.496;7.210;2022-10-14T14:33:55;4.30;;;3.30;;
2966;SDS011;1493;51.496;7.210;2022-10-14T14:36:24;7.10;;;4.17;;
2966;SDS011;1493;51.496;7.210;2022-10-14T14:38:56;4.40;;;3.63;;
2966;SDS011;1493;51.496;7.210;2022-10-14T14:41:25;4.80;;;3.80;;
2966;SDS011;1493;51.496;7.210;2022-10-14T14:43:54;5.43;;;4.00;;
2966;SDS011;1493;51.496;7.210;2022-10-14T14:46:25;5.83;;;3.57;;
2966;SDS011;1493;51.496;7.210;2022-10-14T14:48:57;5.40;;;3.63;;
2966;SDS011;1493;51.496;7.210;2022-10-14T14:51:24;4.70;;;3.43;;
2966;SDS011;1493;51.496;7.210;2022-10-14T14:53:55;7.03;;;3.30;;
2966;SDS011;1493;51.496;7.210;2022-10-14T14:56:23;4.53;;;3.10;;
2966;SDS011;1493;51.496;7.210;2022-10-14T14:59:01;4.60;;;3.20;;
2966;SDS011;1493;51.496;7.210;2022-10-14T15:01:34;4.83;;;3.90;;
2966;SDS011;1493;51.496;7.210;2022-10-14T15:04:01;4.03;;;3.30;;
2966;SDS011;1493;51.496;7.210;2022-10-14T15:06:31;4.77;;;3.20;;
2966;SDS011;1493;51.496;7.210;2022-10-14T15:08:59;4.30;;;3.53;;
2966;SDS011;1493;51.496;7.210;2022-10-14T15:11:44;5.47;;;3.47;;
2966;SDS011;1493;51.496;7.210;2022-10-14T15:14:24;5.87;;;3.77;;
2966;SDS011;1493;51.496;7.210;2022-10-14T15:16:56;5.70;;;4.20;;
2966;SDS011;1493;51.496;7.210;2022-10-14T15:19:27;4.57;;;3.13;;
2966;SDS011;1493;51.496;7.210;2022-10-14T15:25:00;4.23;;;2.83;;
2966;SDS011;1493;51.496;7.210;2022-10-14T15:27:29;6.13;;;3.43;;
2966;SDS011;1493;51.496;7.210;2022-10-14T15:30:22;3.93;;;3.53;;
2966;SDS011;1493;51.496;7.210;2022-10-14T15:32:53;4.30;;;3.57;;
2966;SDS011;1493;51.496;7.210;2022-10-14T15:35:22;8.53;;;4.30;;
2966;SDS011;1493;51.496;7.210;2022-10-14T15:37:49;3.63;;;3.07;;
2966;SDS011;1493;51.496;7.210;2022-10-14T15:40:17;4.50;;;3.13;;
2966;SDS011;1493;51.496;7.210;2022-10-14T15:42:46;5.60;;;3.67;;
2966;SDS011;1493;51.496;7.210;2022-10-14T15:45:13;4.10;;;3.37;;
2966;SDS011;1493;51.496;7.210;2022-10-14T15:47:41;9.17;;;4.27;;
2966;SDS011;1493;51.496;7.210;2022-10-14T15:50:12;3.70;;;3.30;;